sensor_id;sensor_type;location;lat;lon;timestamp;pressure;altitude;pressure_sealevel;temperature;humidity
59729;BME280;45588;51.598;5.618;2022-08-07T00:00:27;102556.09;;;12.70;100.00
59729;BME280;45588;51.598;5.618;2022-08-07T00:02:53;102544.88;;;12.72;100.00
59729;BME280;45588;51.598;5.618;2022-08-07T00:05:21;102555.16;;;12.68;100.00
59729;BME280;45588;51.598;5.618;2022-08-07T00:07:47;102554.84;;;12.60;100.00
59729;BME280;45588;51.598;5.618;2022-08-07T00:10:13;102556.53;;;12.60;100.00
59729;BME280;45588;51.598;5.618;2022-08-07T00:12:38;102552.03;;;12.55;100.00
59729;BME280;45588;51.598;5.618;2022-08-07T00:15:04;102547.38;;;12.48;100.00
59729;BME280;45588;51.598;5.618;2022-08-07T00:17:30;102546.28;;;12.43;100.00
59729;BME280;45588;51.598;5.618;2022-08-07T00:19:55;102547.03;;;12.41;100.00
59729;BME280;45588;51.598;5.618;2022-08-07T00:22:20;102551.22;;;12.37;100.00
59729;BME280;45588;51.598;5.618;2022-08-07T00:24:45;102536.38;;;12.36;100.00
59729;BME280;45588;51.598;5.618;2022-08-07T00:27:11;102537.06;;;12.32;100.00
59729;BME280;45588;51.598;5.618;2022-08-07T00:29:36;102539.69;;;12.32;100.00
59729;BME280;45588;51.598;5.618;2022-08-07T00:32:01;102540.59;;;12.32;100.00
59729;BME280;45588;51.598;5.618;2022-08-07T00:34:27;102536.25;;;12.33;100.00
59729;BME280;45588;51.598;5.618;2022-08-07T00:36:54;102532.69;;;12.31;100.00
59729;BME280;45588;51.598;5.618;2022-08-07T00:39:20;102525.69;;;12.30;100.00
59729;BME280;45588;51.598;5.618;2022-08-07T00:41:53;102524.53;;;12.23;100.00
59729;BME280;45588;51.598;5.618;2022-08-07T00:44:19;102517.56;;;12.24;100.00
59729;BME280;45588;51.598;5.618;2022-08-07T00:46:44;102524.19;;;12.16;100.00
59729;BME280;45588;51.598;5.618;2022-08-07T00:49:10;102515.34;;;12.12;100.00
59729;BME280;45588;51.598;5.618;2022-08-07T00:51:35;102517.03;;;12.11;100.00
59729;BME280;45588;51.598;5.618;2022-08-07T00:54:01;102516.50;;;11.99;100.00
59729;BME280;45588;51.598;5.618;2022-08-07T00:56:26;102522.69;;;12.01;100.00
59729;BME280;45588;51.598;5.618;2022-08-07T00:58:53;102511.78;;;11.90;100.00
59729;BME280;45588;51.598;5.618;2022-08-07T01:01:18;102511.09;;;11.95;100.00
59729;BME280;45588;51.598;5.618;2022-08-07T01:03:44;102508.41;;;11.93;100.00
59729;BME280;45588;51.598;5.618;2022-08-07T01:06:10;102509.28;;;11.94;100.00
59729;BME280;45588;51.598;5.618;2022-08-07T01:08:35;102506.31;;;11.86;100.00
59729;BME280;45588;51.598;5.618;2022-08-07T01:11:01;102507.31;;;11.88;100.00
59729;BME280;45588;51.598;5.618;2022-08-07T01:13:27;102500.88;;;11.81;100.00
59729;BME280;45588;51.598;5.618;2022-08-07T01:15:52;102508.09;;;11.67;100.00
59729;BME280;45588;51.598;5.618;2022-08-07T01:18:19;102507.34;;;11.70;100.00
59729;BME280;45588;51.598;5.618;2022-08-07T01:20:49;102512.44;;;11.67;100.00
59729;BME280;45588;51.598;5.618;2022-08-07T01:23:17;102511.34;;;11.62;100.00
59729;BME280;45588;51.598;5.618;2022-08-07T01:25:43;102503.28;;;11.57;100.00
59729;BME280;45588;51.598;5.618;2022-08-07T01:28:09;102503.16;;;11.54;100.00
59729;BME280;45588;51.598;5.618;2022-08-07T01:30:35;102498.75;;;11.53;100.00
59729;BME280;45588;51.598;5.618;2022-08-07T01:33:01;102490.69;;;11.48;100.00
59729;BME280;45588;51.598;5.618;2022-08-07T01:35:26;102494.00;;;11.44;100.00
59729;BME280;45588;51.598;5.618;2022-08-07T01:37:52;102492.97;;;11.41;100.00
59729;BME280;45588;51.598;5.618;2022-08-07T01:40:19;102496.31;;;11.38;100.00
59729;BME280;45588;51.598;5.618;2022-08-07T01:42:46;102497.97;;;11.36;100.00
59729;BME280;45588;51.598;5.618;2022-08-07T01:45:11;102490.84;;;11.32;100.00
59729;BME280;45588;51.598;5.618;2022-08-07T01:47:37;102494.47;;;11.36;100.00
59729;BME280;45588;51.598;5.618;2022-08-07T01:50:04;102491.94;;;11.37;100.00
59729;BME280;45588;51.598;5.618;2022-08-07T01:52:30;102499.81;;;11.39;100.00
59729;BME280;45588;51.598;5.618;2022-08-07T01:54:58;102491.84;;;11.36;100.00
59729;BME280;45588;51.598;5.618;2022-08-07T01:57:27;102488.13;;;11.31;100.00
59729;BME280;45588;51.598;5.618;2022-08-07T02:00:00;102487.25;;;11.30;100.00
59729;BME280;45588;51.598;5.618;2022-08-07T02:02:30;102485.63;;;11.32;100.00
59729;BME280;45588;51.598;5.618;2022-08-07T02:05:01;102484.66;;;11.30;100.00
59729;BME280;45588;51.598;5.618;2022-08-07T02:07:31;102482.03;;;11.30;100.00
59729;BME280;45588;51.598;5.618;2022-08-07T02:09:59;102479.28;;;11.27;100.00
59729;BME280;45588;51.598;5.618;2022-08-07T02:12:27;102480.03;;;11.24;100.00
59729;BME280;45588;51.598;5.618;2022-08-07T02:14:57;102485.19;;;11.23;100.00
59729;BME280;45588;51.598;5.618;2022-08-07T02:17:24;102485.03;;;11.20;100.00
59729;BME280;45588;51.598;5.618;2022-08-07T02:19:51;102482.34;;;11.18;100.00
59729;BME280;45588;51.598;5.618;2022-08-07T02:22:19;102476.19;;;11.16;100.00
59729;BME280;45588;51.598;5.618;2022-08-07T02:24:47;102479.47;;;11.12;100.00
59729;BME280;45588;51.598;5.618;2022-08-07T02:27:15;102476.09;;;11.15;100.00
59729;BME280;45588;51.598;5.618;2022-08-07T02:29:43;102468.28;;;11.15;100.00
59729;BME280;45588;51.598;5.618;2022-08-07T02:32:09;102474.47;;;11.17;100.00
59729;BME280;45588;51.598;5.618;2022-08-07T02:34:37;102476.09;;;11.15;100.00
59729;BME280;45588;51.598;5.618;2022-08-07T02:37:04;102472.63;;;11.14;100.00
59729;BME280;45588;51.598;5.618;2022-08-07T02:39:34;102465.47;;;11.10;100.00
59729;BME280;45588;51.598;5.618;2022-08-07T02:42:00;102481.00;;;11.09;100.00
59729;BME280;45588;51.598;5.618;2022-08-07T02:44:26;102479.09;;;11.04;100.00
59729;BME280;45588;51.598;5.618;2022-08-07T02:46:55;102477.16;;;11.00;100.00
59729;BME280;45588;51.598;5.618;2022-08-07T02:49:23;102478.00;;;10.99;100.00
59729;BME280;45588;51.598;5.618;2022-08-07T02:51:48;102468.22;;;10.95;100.00
59729;BME280;45588;51.598;5.618;2022-08-07T02:54:16;102473.41;;;10.94;100.00
59729;BME280;45588;51.598;5.618;2022-08-07T02:56:42;102467.13;;;10.90;100.00
59729;BME280;45588;51.598;5.618;2022-08-07T02:59:14;102469.44;;;10.84;100.00
59729;BME280;45588;51.598;5.618;2022-08-07T03:01:41;102465.88;;;10.82;100.00
59729;BME280;45588;51.598;5.618;2022-08-07T03:04:09;102467.41;;;10.78;100.00
59729;BME280;45588;51.598;5.618;2022-08-07T03:06:36;102461.25;;;10.76;100.00
59729;BME280;45588;51.598;5.618;2022-08-07T03:09:04;102468.09;;;10.74;100.00
59729;BME280;45588;51.598;5.618;2022-08-07T03:11:32;102469.00;;;10.75;100.00
59729;BME280;45588;51.598;5.618;2022-08-07T03:14:00;102465.50;;;10.74;100.00
59729;BME280;45588;51.598;5.618;2022-08-07T03:16:26;102463.69;;;10.73;100.00
59729;BME280;45588;51.598;5.618;2022-08-07T03:18:52;102460.16;;;10.71;100.00
59729;BME280;45588;51.598;5.618;2022-08-07T03:21:18;102461.78;;;10.69;100.00
59729;BME280;45588;51.598;5.618;2022-08-07T03:23:44;102462.75;;;10.71;100.00
59729;BME280;45588;51.598;5.618;2022-08-07T03:26:12;102461.84;;;10.71;100.00
59729;BME280;45588;51.598;5.618;2022-08-07T03:28:40;102470.63;;;10.73;100.00
59729;BME280;45588;51.598;5.618;2022-08-07T03:31:07;102456.72;;;10.72;100.00
59729;BME280;45588;51.598;5.618;2022-08-07T03:33:46;102463.56;;;10.70;100.00
59729;BME280;45588;51.598;5.618;2022-08-07T03:36:13;102455.22;;;10.59;100.00
59729;BME280;45588;51.598;5.618;2022-08-07T03:38:39;102461.94;;;10.54;100.00
59729;BME280;45588;51.598;5.618;2022-08-07T03:41:05;102449.56;;;10.50;100.00
59729;BME280;45588;51.598;5.618;2022-08-07T03:43:32;102464.16;;;10.47;100.00
59729;BME280;45588;51.598;5.618;2022-08-07T03:45:58;102458.81;;;10.44;100.00
59729;BME280;45588;51.598;5.618;2022-08-07T03:48:25;102467.13;;;10.36;100.00
59729;BME280;45588;51.598;5.618;2022-08-07T03:50:51;102461.91;;;10.36;100.00
59729;BME280;45588;51.598;5.618;2022-08-07T03:53:17;102471.34;;;10.34;100.00
59729;BME280;45588;51.598;5.618;2022-08-07T03:55:43;102470.38;;;10.32;100.00
59729;BME280;45588;51.598;5.618;2022-08-07T03:58:10;102462.56;;;10.32;100.00
59729;BME280;45588;51.598;5.618;2022-08-07T04:00:37;102464.38;;;10.33;100.00
59729;BME280;45588;51.598;5.618;2022-08-07T04:03:04;102467.78;;;10.32;100.00
59729;BME280;45588;51.598;5.618;2022-08-07T04:05:33;102476.47;;;10.33;100.00
59729;BME280;45588;51.598;5.618;2022-08-07T04:07:59;102483.25;;;10.29;100.00
59729;BME280;45588;51.598;5.618;2022-08-07T04:10:24;102484.31;;;10.16;100.00
59729;BME280;45588;51.598;5.618;2022-08-07T04:12:50;102482.69;;;10.18;100.00
59729;BME280;45588;51.598;5.618;2022-08-07T04:15:16;102489.00;;;10.24;100.00
59729;BME280;45588;51.598;5.618;2022-08-07T04:17:42;102479.63;;;10.27;100.00
59729;BME280;45588;51.598;5.618;2022-08-07T04:20:10;102474.19;;;10.39;100.00
59729;BME280;45588;51.598;5.618;2022-08-07T04:22:35;102476.94;;;10.60;100.00
59729;BME280;45588;51.598;5.618;2022-08-07T04:25:01;102477.31;;;10.86;100.00
59729;BME280;45588;51.598;5.618;2022-08-07T04:27:27;102480.44;;;11.14;100.00
59729;BME280;45588;51.598;5.618;2022-08-07T04:29:53;102485.34;;;11.45;100.00
59729;BME280;45588;51.598;5.618;2022-08-07T04:32:19;102476.44;;;11.79;100.00
59729;BME280;45588;51.598;5.618;2022-08-07T04:34:45;102480.00;;;12.20;100.00
59729;BME280;45588;51.598;5.618;2022-08-07T04:37:10;102486.50;;;12.51;100.00
59729;BME280;45588;51.598;5.618;2022-08-07T04:39:35;102483.00;;;12.94;100.00
59729;BME280;45588;51.598;5.618;2022-08-07T04:42:02;102486.84;;;13.47;100.00
59729;BME280;45588;51.598;5.618;2022-08-07T04:44:28;102475.19;;;13.63;100.00
59729;BME280;45588;51.598;5.618;2022-08-07T04:47:08;102473.56;;;14.15;100.00
59729;BME280;45588;51.598;5.618;2022-08-07T04:49:46;102473.88;;;14.51;100.00
59729;BME280;45588;51.598;5.618;2022-08-07T04:52:30;102475.13;;;14.88;100.00
59729;BME280;45588;51.598;5.618;2022-08-07T04:55:21;102482.34;;;15.24;100.00
59729;BME280;45588;51.598;5.618;2022-08-07T04:57:54;102482.56;;;15.60;98.48
59729;BME280;45588;51.598;5.618;2022-08-07T05:03:40;102497.28;;;15.55;96.97
59729;BME280;45588;51.598;5.618;2022-08-07T05:06:14;102490.84;;;14.61;98.60
59729;BME280;45588;51.598;5.618;2022-08-07T05:08:49;102504.78;;;14.09;100.00
59729;BME280;45588;51.598;5.618;2022-08-07T05:11:23;102497.91;;;13.40;100.00
59729;BME280;45588;51.598;5.618;2022-08-07T05:14:00;102495.22;;;12.95;100.00
59729;BME280;45588;51.598;5.618;2022-08-07T05:16:29;102498.69;;;12.50;100.00
59729;BME280;45588;51.598;5.618;2022-08-07T05:19:00;102497.84;;;12.51;100.00
59729;BME280;45588;51.598;5.618;2022-08-07T05:21:26;102500.06;;;12.42;100.00
59729;BME280;45588;51.598;5.618;2022-08-07T05:23:59;102507.06;;;12.22;100.00
59729;BME280;45588;51.598;5.618;2022-08-07T05:26:26;102500.16;;;12.24;100.00
59729;BME280;45588;51.598;5.618;2022-08-07T05:28:55;102498.47;;;12.25;100.00
59729;BME280;45588;51.598;5.618;2022-08-07T05:31:23;102505.72;;;12.32;100.00
59729;BME280;45588;51.598;5.618;2022-08-07T05:33:50;102508.34;;;12.32;100.00
59729;BME280;45588;51.598;5.618;2022-08-07T05:36:17;102505.66;;;12.30;100.00
59729;BME280;45588;51.598;5.618;2022-08-07T05:38:43;102507.09;;;12.43;100.00
59729;BME280;45588;51.598;5.618;2022-08-07T05:41:09;102506.19;;;12.43;100.00
59729;BME280;45588;51.598;5.618;2022-08-07T05:43:36;102508.56;;;12.58;100.00
59729;BME280;45588;51.598;5.618;2022-08-07T05:46:03;102512.63;;;12.72;100.00
59729;BME280;45588;51.598;5.618;2022-08-07T05:48:29;102514.66;;;12.79;100.00
59729;BME280;45588;51.598;5.618;2022-08-07T05:50:56;102512.72;;;12.96;100.00
59729;BME280;45588;51.598;5.618;2022-08-07T05:53:23;102514.22;;;13.12;100.00
59729;BME280;45588;51.598;5.618;2022-08-07T05:55:49;102505.91;;;13.22;100.00
59729;BME280;45588;51.598;5.618;2022-08-07T05:58:16;102510.56;;;13.29;100.00
59729;BME280;45588;51.598;5.618;2022-08-07T06:00:43;102507.16;;;13.54;100.00
59729;BME280;45588;51.598;5.618;2022-08-07T06:03:11;102513.75;;;13.67;100.00
59729;BME280;45588;51.598;5.618;2022-08-07T06:05:37;102519.63;;;13.84;100.00
59729;BME280;45588;51.598;5.618;2022-08-07T06:08:03;102520.78;;;13.92;100.00
59729;BME280;45588;51.598;5.618;2022-08-07T06:10:29;102526.56;;;14.07;100.00
59729;BME280;45588;51.598;5.618;2022-08-07T06:12:54;102526.06;;;14.18;100.00
59729;BME280;45588;51.598;5.618;2022-08-07T06:15:21;102528.13;;;14.26;100.00
59729;BME280;45588;51.598;5.618;2022-08-07T06:17:47;102522.56;;;14.43;100.00
59729;BME280;45588;51.598;5.618;2022-08-07T06:20:13;102527.09;;;14.48;100.00
59729;BME280;45588;51.598;5.618;2022-08-07T06:22:41;102519.53;;;14.56;100.00
59729;BME280;45588;51.598;5.618;2022-08-07T06:25:06;102528.50;;;14.63;100.00
59729;BME280;45588;51.598;5.618;2022-08-07T06:27:32;102525.19;;;14.68;100.00
59729;BME280;45588;51.598;5.618;2022-08-07T06:29:59;102527.28;;;14.79;100.00
59729;BME280;45588;51.598;5.618;2022-08-07T06:32:24;102521.59;;;14.92;100.00
59729;BME280;45588;51.598;5.618;2022-08-07T06:34:49;102522.97;;;15.08;100.00
59729;BME280;45588;51.598;5.618;2022-08-07T06:37:15;102516.63;;;15.01;100.00
59729;BME280;45588;51.598;5.618;2022-08-07T06:39:40;102517.91;;;15.14;100.00
59729;BME280;45588;51.598;5.618;2022-08-07T06:42:15;102512.22;;;15.27;100.00
59729;BME280;45588;51.598;5.618;2022-08-07T06:44:44;102514.13;;;15.33;100.00
59729;BME280;45588;51.598;5.618;2022-08-07T06:47:10;102513.47;;;15.40;100.00
59729;BME280;45588;51.598;5.618;2022-08-07T06:49:35;102501.28;;;15.42;100.00
59729;BME280;45588;51.598;5.618;2022-08-07T06:52:01;102500.78;;;15.55;100.00
59729;BME280;45588;51.598;5.618;2022-08-07T06:54:27;102505.97;;;15.54;100.00
59729;BME280;45588;51.598;5.618;2022-08-07T06:56:53;102497.38;;;15.58;100.00
59729;BME280;45588;51.598;5.618;2022-08-07T06:59:22;102499.47;;;15.70;100.00
59729;BME280;45588;51.598;5.618;2022-08-07T07:01:50;102498.19;;;15.86;100.00
59729;BME280;45588;51.598;5.618;2022-08-07T07:04:16;102487.75;;;15.89;100.00
59729;BME280;45588;51.598;5.618;2022-08-07T07:06:43;102491.28;;;16.22;100.00
59729;BME280;45588;51.598;5.618;2022-08-07T07:09:22;102493.13;;;16.27;99.13
59729;BME280;45588;51.598;5.618;2022-08-07T07:14:23;102505.44;;;16.62;100.00
59729;BME280;45588;51.598;5.618;2022-08-07T07:16:51;102507.06;;;16.57;92.00
59729;BME280;45588;51.598;5.618;2022-08-07T07:19:24;102501.06;;;16.63;96.27
59729;BME280;45588;51.598;5.618;2022-08-07T07:21:52;102506.13;;;16.54;92.05
59729;BME280;45588;51.598;5.618;2022-08-07T07:24:19;102507.25;;;16.65;91.89
59729;BME280;45588;51.598;5.618;2022-08-07T07:26:45;102500.75;;;16.84;93.17
59729;BME280;45588;51.598;5.618;2022-08-07T07:29:12;102507.00;;;16.89;89.99
59729;BME280;45588;51.598;5.618;2022-08-07T07:31:42;102505.88;;;17.17;97.31
59729;BME280;45588;51.598;5.618;2022-08-07T07:34:13;102503.84;;;17.05;93.61
59729;BME280;45588;51.598;5.618;2022-08-07T07:36:43;102507.53;;;17.12;94.11
59729;BME280;45588;51.598;5.618;2022-08-07T07:39:09;102490.13;;;17.19;95.94
59729;BME280;45588;51.598;5.618;2022-08-07T07:41:37;102489.66;;;17.37;91.12
59729;BME280;45588;51.598;5.618;2022-08-07T07:44:05;102488.22;;;17.52;93.39
59729;BME280;45588;51.598;5.618;2022-08-07T07:46:34;102483.44;;;17.77;90.79
59729;BME280;45588;51.598;5.618;2022-08-07T07:49:01;102480.34;;;17.98;90.08
59729;BME280;45588;51.598;5.618;2022-08-07T07:51:28;102475.44;;;18.18;90.83
59729;BME280;45588;51.598;5.618;2022-08-07T07:53:56;102484.94;;;18.07;84.02
59729;BME280;45588;51.598;5.618;2022-08-07T07:56:23;102472.97;;;18.27;86.28
59729;BME280;45588;51.598;5.618;2022-08-07T07:58:50;102476.00;;;18.52;86.10
59729;BME280;45588;51.598;5.618;2022-08-07T08:01:17;102480.28;;;18.42;84.79
59729;BME280;45588;51.598;5.618;2022-08-07T08:03:44;102473.25;;;18.43;81.77
59729;BME280;45588;51.598;5.618;2022-08-07T08:06:11;102472.38;;;18.44;83.69
59729;BME280;45588;51.598;5.618;2022-08-07T08:08:39;102475.25;;;18.59;81.21
59729;BME280;45588;51.598;5.618;2022-08-07T08:11:07;102469.97;;;18.59;82.65
59729;BME280;45588;51.598;5.618;2022-08-07T08:13:34;102476.59;;;18.86;79.50
59729;BME280;45588;51.598;5.618;2022-08-07T08:16:01;102474.13;;;18.99;81.55
59729;BME280;45588;51.598;5.618;2022-08-07T08:18:28;102472.41;;;19.01;76.52
59729;BME280;45588;51.598;5.618;2022-08-07T08:20:57;102474.13;;;18.99;75.08
59729;BME280;45588;51.598;5.618;2022-08-07T08:23:25;102471.31;;;18.87;75.72
59729;BME280;45588;51.598;5.618;2022-08-07T08:26:11;102476.16;;;19.16;76.56
59729;BME280;45588;51.598;5.618;2022-08-07T08:28:57;102476.88;;;19.07;72.99
59729;BME280;45588;51.598;5.618;2022-08-07T08:31:28;102474.41;;;19.18;73.32
59729;BME280;45588;51.598;5.618;2022-08-07T08:33:55;102480.72;;;19.29;71.94
59729;BME280;45588;51.598;5.618;2022-08-07T08:36:25;102479.88;;;19.32;70.62
59729;BME280;45588;51.598;5.618;2022-08-07T08:38:52;102478.22;;;19.41;70.54
59729;BME280;45588;51.598;5.618;2022-08-07T08:44:03;102476.97;;;19.82;71.48
59729;BME280;45588;51.598;5.618;2022-08-07T08:46:40;102479.91;;;20.09;70.86
59729;BME280;45588;51.598;5.618;2022-08-07T08:49:25;102474.38;;;19.88;68.64
59729;BME280;45588;51.598;5.618;2022-08-07T08:52:13;102478.06;;;20.01;71.91
59729;BME280;45588;51.598;5.618;2022-08-07T08:54:46;102477.22;;;20.08;71.32
59729;BME280;45588;51.598;5.618;2022-08-07T08:57:20;102471.16;;;20.17;67.75
59729;BME280;45588;51.598;5.618;2022-08-07T09:00:03;102466.75;;;20.17;68.10
59729;BME280;45588;51.598;5.618;2022-08-07T09:05:30;102465.06;;;20.24;68.04
59729;BME280;45588;51.598;5.618;2022-08-07T09:11:04;102469.41;;;20.17;67.11
59729;BME280;45588;51.598;5.618;2022-08-07T09:13:50;102468.69;;;20.34;66.27
59729;BME280;45588;51.598;5.618;2022-08-07T09:16:27;102471.53;;;20.61;67.97
59729;BME280;45588;51.598;5.618;2022-08-07T09:19:29;102468.03;;;20.62;66.01
59729;BME280;45588;51.598;5.618;2022-08-07T09:22:39;102468.03;;;20.59;68.75
59729;BME280;45588;51.598;5.618;2022-08-07T09:25:11;102462.78;;;20.68;65.05
59729;BME280;45588;51.598;5.618;2022-08-07T09:28:03;102452.28;;;20.84;67.61
59729;BME280;45588;51.598;5.618;2022-08-07T09:33:14;102452.56;;;21.34;64.40
59729;BME280;45588;51.598;5.618;2022-08-07T09:44:38;102449.78;;;21.11;61.71
59729;BME280;45588;51.598;5.618;2022-08-07T09:47:16;102450.81;;;21.32;61.82
59729;BME280;45588;51.598;5.618;2022-08-07T09:50:02;102451.84;;;21.75;67.54
59729;BME280;45588;51.598;5.618;2022-08-07T09:52:41;102443.88;;;21.65;63.50
59729;BME280;45588;51.598;5.618;2022-08-07T10:00:42;102422.63;;;21.58;66.15
59729;BME280;45588;51.598;5.618;2022-08-07T10:03:20;102427.03;;;21.56;60.41
59729;BME280;45588;51.598;5.618;2022-08-07T10:08:58;102421.78;;;21.84;59.74
59729;BME280;45588;51.598;5.618;2022-08-07T10:16:58;102417.38;;;21.75;58.26
59729;BME280;45588;51.598;5.618;2022-08-07T10:25:53;102405.03;;;22.42;56.26
59729;BME280;45588;51.598;5.618;2022-08-07T10:28:44;102403.28;;;22.24;55.49
59729;BME280;45588;51.598;5.618;2022-08-07T10:31:31;102411.22;;;21.98;57.01
59729;BME280;45588;51.598;5.618;2022-08-07T10:42:52;102399.75;;;22.20;58.01
59729;BME280;45588;51.598;5.618;2022-08-07T10:45:34;102390.84;;;22.47;58.28
59729;BME280;45588;51.598;5.618;2022-08-07T10:48:13;102391.72;;;22.66;57.08
59729;BME280;45588;51.598;5.618;2022-08-07T10:50:50;102387.28;;;22.59;55.04
59729;BME280;45588;51.598;5.618;2022-08-07T10:53:42;102384.53;;;22.98;59.13
59729;BME280;45588;51.598;5.618;2022-08-07T11:02:03;102378.13;;;23.40;51.31
59729;BME280;45588;51.598;5.618;2022-08-07T11:04:51;102379.16;;;23.18;53.59
59729;BME280;45588;51.598;5.618;2022-08-07T11:07:39;102365.81;;;23.31;54.24
59729;BME280;45588;51.598;5.618;2022-08-07T11:10:16;102364.16;;;23.04;51.33
59729;BME280;45588;51.598;5.618;2022-08-07T11:12:53;102351.72;;;23.13;52.77
59729;BME280;45588;51.598;5.618;2022-08-07T11:15:23;102361.41;;;23.24;51.79
59729;BME280;45588;51.598;5.618;2022-08-07T11:18:02;102359.84;;;22.57;52.22
59729;BME280;45588;51.598;5.618;2022-08-07T11:20:40;102351.94;;;22.42;57.11
59729;BME280;45588;51.598;5.618;2022-08-07T11:23:17;102347.50;;;22.47;56.33
59729;BME280;45588;51.598;5.618;2022-08-07T11:26:12;102344.75;;;22.75;53.59
59729;BME280;45588;51.598;5.618;2022-08-07T11:28:42;102350.91;;;22.84;53.73
59729;BME280;45588;51.598;5.618;2022-08-07T11:31:24;102342.09;;;22.76;55.73
59729;BME280;45588;51.598;5.618;2022-08-07T11:34:04;102335.94;;;22.66;61.65
59729;BME280;45588;51.598;5.618;2022-08-07T11:44:58;102322.00;;;23.85;55.71
59729;BME280;45588;51.598;5.618;2022-08-07T11:48:02;102324.81;;;23.60;53.33
59729;BME280;45588;51.598;5.618;2022-08-07T11:53:56;102317.91;;;23.36;54.46
59729;BME280;45588;51.598;5.618;2022-08-07T11:56:40;102330.16;;;23.55;52.90
59729;BME280;45588;51.598;5.618;2022-08-07T11:59:40;102315.78;;;23.87;50.45
59729;BME280;45588;51.598;5.618;2022-08-07T12:07:25;102318.63;;;23.60;48.98
59729;BME280;45588;51.598;5.618;2022-08-07T12:10:02;102318.56;;;23.67;50.48
59729;BME280;45588;51.598;5.618;2022-08-07T12:12:41;102322.94;;;23.76;52.33
59729;BME280;45588;51.598;5.618;2022-08-07T12:15:33;102312.25;;;23.87;56.15
59729;BME280;45588;51.598;5.618;2022-08-07T12:18:13;102311.22;;;24.00;55.08
59729;BME280;45588;51.598;5.618;2022-08-07T12:23:56;102311.56;;;23.55;55.51
59729;BME280;45588;51.598;5.618;2022-08-07T12:26:42;102314.41;;;23.31;55.39
59729;BME280;45588;51.598;5.618;2022-08-07T12:32:08;102308.44;;;22.77;53.54
59729;BME280;45588;51.598;5.618;2022-08-07T12:34:37;102303.94;;;23.03;55.87
59729;BME280;45588;51.598;5.618;2022-08-07T12:37:04;102300.44;;;22.86;54.06
59729;BME280;45588;51.598;5.618;2022-08-07T12:39:31;102299.50;;;22.96;56.42
59729;BME280;45588;51.598;5.618;2022-08-07T12:41:58;102297.59;;;23.24;57.11
59729;BME280;45588;51.598;5.618;2022-08-07T12:44:24;102301.88;;;23.45;53.24
59729;BME280;45588;51.598;5.618;2022-08-07T12:46:59;102299.31;;;23.33;51.72
59729;BME280;45588;51.598;5.618;2022-08-07T12:52:14;102285.06;;;23.43;54.13
59729;BME280;45588;51.598;5.618;2022-08-07T12:54:58;102296.66;;;23.30;49.27
59729;BME280;45588;51.598;5.618;2022-08-07T12:57:30;102286.81;;;23.46;49.20
59729;BME280;45588;51.598;5.618;2022-08-07T12:59:55;102275.16;;;23.64;50.96
59729;BME280;45588;51.598;5.618;2022-08-07T13:02:58;102283.13;;;23.67;48.31
59729;BME280;45588;51.598;5.618;2022-08-07T13:05:44;102277.16;;;23.32;51.67
59729;BME280;45588;51.598;5.618;2022-08-07T13:08:39;102283.16;;;23.64;53.14
59729;BME280;45588;51.598;5.618;2022-08-07T13:14:01;102265.28;;;23.78;49.35
59729;BME280;45588;51.598;5.618;2022-08-07T13:16:46;102271.31;;;23.98;48.17
59729;BME280;45588;51.598;5.618;2022-08-07T13:19:29;102262.19;;;24.24;51.05
59729;BME280;45588;51.598;5.618;2022-08-07T13:24:59;102265.13;;;23.96;47.14
59729;BME280;45588;51.598;5.618;2022-08-07T13:27:33;102263.63;;;23.65;50.12
59729;BME280;45588;51.598;5.618;2022-08-07T13:30:05;102261.94;;;23.54;50.87
59729;BME280;45588;51.598;5.618;2022-08-07T13:32:54;102260.03;;;23.66;48.94
59729;BME280;45588;51.598;5.618;2022-08-07T13:38:37;102261.13;;;23.43;47.98
59729;BME280;45588;51.598;5.618;2022-08-07T13:41:24;102254.97;;;23.40;48.81
59729;BME280;45588;51.598;5.618;2022-08-07T13:43:53;102250.53;;;23.37;47.51
59729;BME280;45588;51.598;5.618;2022-08-07T13:46:20;102253.22;;;23.32;47.94
59729;BME280;45588;51.598;5.618;2022-08-07T13:48:48;102259.34;;;23.47;51.20
59729;BME280;45588;51.598;5.618;2022-08-07T13:51:17;102248.66;;;23.50;50.96
59729;BME280;45588;51.598;5.618;2022-08-07T13:53:51;102257.66;;;23.37;47.21
59729;BME280;45588;51.598;5.618;2022-08-07T13:56:19;102248.63;;;23.53;50.54
59729;BME280;45588;51.598;5.618;2022-08-07T13:58:47;102247.00;;;23.35;52.02
59729;BME280;45588;51.598;5.618;2022-08-07T14:01:32;102236.56;;;23.09;49.12
59729;BME280;45588;51.598;5.618;2022-08-07T14:04:08;102239.22;;;23.14;50.44
59729;BME280;45588;51.598;5.618;2022-08-07T14:06:38;102239.16;;;23.18;52.13
59729;BME280;45588;51.598;5.618;2022-08-07T14:09:21;102233.59;;;23.50;50.89
59729;BME280;45588;51.598;5.618;2022-08-07T14:12:10;102241.63;;;23.44;48.57
59729;BME280;45588;51.598;5.618;2022-08-07T14:14:41;102238.25;;;23.21;47.54
59729;BME280;45588;51.598;5.618;2022-08-07T14:17:09;102233.50;;;23.60;46.40
59729;BME280;45588;51.598;5.618;2022-08-07T14:19:45;102229.88;;;23.74;47.07
59729;BME280;45588;51.598;5.618;2022-08-07T14:22:17;102229.72;;;23.88;45.80
59729;BME280;45588;51.598;5.618;2022-08-07T14:24:49;102224.31;;;23.96;44.70
59729;BME280;45588;51.598;5.618;2022-08-07T14:27:20;102227.75;;;24.06;47.57
59729;BME280;45588;51.598;5.618;2022-08-07T14:29:54;102226.97;;;23.97;45.26
59729;BME280;45588;51.598;5.618;2022-08-07T14:32:20;102233.34;;;23.81;51.85
59729;BME280;45588;51.598;5.618;2022-08-07T14:34:49;102227.13;;;23.81;46.29
59729;BME280;45588;51.598;5.618;2022-08-07T14:37:17;102225.31;;;23.86;46.23
59729;BME280;45588;51.598;5.618;2022-08-07T14:39:44;102229.75;;;23.87;46.54